Time;durP1;ratioP1;P1;durP2;ratioP2;P2;SDS_P1;SDS_P2;PMS_P1;PMS_P2;Temp;Humidity;BMP_temperature;BMP_pressure;BME280_temperature;BME280_humidity;BME280_pressure;Samples;Min_cycle;Max_cycle;Signal;HPM_P1;HPM_P2
2023/10/16 00:00:32;;;;;;;;;;;18.40;1.00;;;;;;4937373;29;19930;-57
2023/10/16 00:02:59;;;;;;;;;;;18.40;1.00;;;;;;4929979;29;19931;-57
2023/10/16 00:05:31;;;;;;;;;;;18.40;1.00;;;;;;4936759;29;20033;-57
2023/10/16 00:08:05;;;;;;;;;;;18.30;1.00;;;;;;4937183;29;19982;-57
2023/10/16 00:10:33;;;;;;;;;;;18.30;1.00;;;;;;4937029;29;19926;-58
2023/10/16 00:13:26;;;;;;;;;;;18.30;1.00;;;;;;4937078;29;20116;-58
2023/10/16 00:15:49;;;;;;;;;;;18.20;1.00;;;;;;4937051;29;20025;-58
2023/10/16 00:18:18;;;;;;;;;;;18.20;1.00;;;;;;4936991;29;20021;-57
2023/10/16 00:20:44;;;;;;;;;;;18.20;1.00;;;;;;4936870;29;20013;-58
2023/10/16 00:23:11;;;;;;;;;;;18.20;1.00;;;;;;4936753;29;19931;-58
2023/10/16 00:25:38;;;;;;;;;;;18.20;1.00;;;;;;4936756;29;19927;-57
2023/10/16 00:30:48;;;;;;;;;;;18.10;1.00;;;;;;4905992;29;19934;-57
2023/10/16 00:33:16;;;;;;;;;;;18.10;1.00;;;;;;4881711;29;19934;-56
2023/10/16 00:35:45;;;;;;;;;;;18.10;1.00;;;;;;4882016;29;20022;-57
2023/10/16 00:38:13;;;;;;;;;;;18.10;1.00;;;;;;4898762;29;19928;-55
2023/10/16 00:40:44;;;;;;;;;;;18.10;1.00;;;;;;4881812;29;19960;-53
2023/10/16 00:43:15;;;;;;;;;;;18.10;1.00;;;;;;4898225;29;19927;-56
2023/10/16 00:45:46;;;;;;;;;;;18.10;1.00;;;;;;4881847;29;20289;-56
2023/10/16 00:48:15;;;;;;;;;;;18.00;1.00;;;;;;4898543;29;20367;-56
2023/10/16 00:50:43;;;;;;;;;;;18.00;1.00;;;;;;4898477;29;19934;-57
2023/10/16 00:53:10;;;;;;;;;;;18.00;1.00;;;;;;4898359;29;19971;-56
2023/10/16 00:55:38;;;;;;;;;;;18.00;1.00;;;;;;4881648;29;19928;-56
2023/10/16 00:58:08;;;;;;;;;;;18.00;1.00;;;;;;4881742;29;19928;-57
2023/10/16 01:03:33;;;;;;;;;;;17.90;1.00;;;;;;5081765;23;19934;-57
2023/10/16 01:06:00;;;;;;;;;;;17.90;1.00;;;;;;4919065;29;19982;-56
2023/10/16 01:08:26;;;;;;;;;;;17.90;1.00;;;;;;4918782;29;19933;-57
2023/10/16 01:10:57;;;;;;;;;;;17.90;1.00;;;;;;4918902;29;19933;-56
2023/10/16 01:13:26;;;;;;;;;;;17.90;1.00;;;;;;4918827;29;20297;-53
2023/10/16 01:15:56;;;;;;;;;;;17.90;1.00;;;;;;4919073;29;19944;-53
2023/10/16 01:18:23;;;;;;;;;;;17.90;1.00;;;;;;4919178;29;20411;-57
2023/10/16 01:20:51;;;;;;;;;;;17.90;1.00;;;;;;4935780;29;19961;-59
2023/10/16 01:23:19;;;;;;;;;;;17.90;1.00;;;;;;4918440;29;20384;-59
2023/10/16 01:25:46;;;;;;;;;;;17.80;1.00;;;;;;4935863;29;20037;-59
2023/10/16 01:28:15;;;;;;;;;;;17.80;1.00;;;;;;4935658;29;19954;-58
2023/10/16 01:30:43;;;;;;;;;;;17.80;1.00;;;;;;4935632;29;19934;-53
2023/10/16 01:36:07;;;;;;;;;;;17.80;1.00;;;;;;4899773;29;19927;-58
2023/10/16 01:38:34;;;;;;;;;;;17.80;1.00;;;;;;4897217;29;19991;-57
2023/10/16 01:41:04;;;;;;;;;;;17.80;1.00;;;;;;4881652;29;19927;-57
2023/10/16 01:43:32;;;;;;;;;;;17.80;1.00;;;;;;4878675;29;19936;-59
2023/10/16 01:46:09;;;;;;;;;;;17.80;1.00;;;;;;4879083;29;19928;-57
2023/10/16 01:48:39;;;;;;;;;;;17.70;1.00;;;;;;4878808;29;20010;-56
2023/10/16 01:51:09;;;;;;;;;;;17.70;1.00;;;;;;4878996;29;20371;-59
2023/10/16 01:53:43;;;;;;;;;;;17.70;1.00;;;;;;4877339;29;20309;-59
2023/10/16 01:56:12;;;;;;;;;;;17.70;1.00;;;;;;4884099;29;20354;-59
2023/10/16 01:58:41;;;;;;;;;;;17.70;1.00;;;;;;4877551;29;20027;-58
2023/10/16 02:01:09;;;;;;;;;;;17.70;1.00;;;;;;4878772;29;19932;-57
2023/10/16 02:03:38;;;;;;;;;;;17.70;1.00;;;;;;4878579;29;19927;-56
2023/10/16 02:08:39;;;;;;;;;;;17.70;1.00;;;;;;4912397;29;19933;-58
2023/10/16 02:11:06;;;;;;;;;;;17.60;1.00;;;;;;4914888;29;19927;-54
2023/10/16 02:13:36;;;;;;;;;;;17.60;1.00;;;;;;4914712;29;19927;-58
2023/10/16 02:16:10;;;;;;;;;;;17.60;1.00;;;;;;4914841;29;20288;-56
2023/10/16 02:18:40;;;;;;;;;;;17.60;1.00;;;;;;4916123;29;20037;-55
2023/10/16 02:21:11;;;;;;;;;;;17.60;1.00;;;;;;4914769;29;19927;-57
2023/10/16 02:23:40;;;;;;;;;;;17.60;1.00;;;;;;4915836;29;19934;-55
2023/10/16 02:26:07;;;;;;;;;;;17.60;1.00;;;;;;4914832;29;19970;-57
2023/10/16 02:28:34;;;;;;;;;;;17.60;1.00;;;;;;4914573;29;19949;-56
2023/10/16 02:31:14;;;;;;;;;;;17.60;1.00;;;;;;4914795;29;19928;-58
2023/10/16 02:33:45;;;;;;;;;;;17.60;1.00;;;;;;4915720;29;20025;-58
2023/10/16 02:36:13;;;;;;;;;;;17.60;1.00;;;;;;4916002;29;20324;-53
2023/10/16 02:38:41;;;;;;;;;;;17.50;1.00;;;;;;4964339;23;19959;-55
2023/10/16 02:41:09;;;;;;;;;;;17.50;1.00;;;;;;4917791;29;19937;-54
2023/10/16 02:43:45;;;;;;;;;;;17.50;1.00;;;;;;4915695;29;20351;-54
2023/10/16 02:46:21;;;;;;;;;;;17.50;1.00;;;;;;4915950;29;19939;-53
2023/10/16 02:48:47;;;;;;;;;;;17.50;1.00;;;;;;4899398;29;20444;-55
2023/10/16 02:51:17;;;;;;;;;;;17.50;1.00;;;;;;4898753;29;19927;-56
2023/10/16 02:53:45;;;;;;;;;;;17.50;1.00;;;;;;4915511;29;20010;-56
2023/10/16 02:58:43;;;;;;;;;;;17.50;1.00;;;;;;4898793;29;19934;-57
2023/10/16 03:01:14;;;;;;;;;;;17.50;1.00;;;;;;4898648;29;19960;-56
2023/10/16 03:03:43;;;;;;;;;;;17.50;1.00;;;;;;4898541;29;20415;-55
2023/10/16 03:06:10;;;;;;;;;;;17.50;1.00;;;;;;4915597;29;19931;-56
2023/10/16 03:08:37;;;;;;;;;;;17.50;1.00;;;;;;4902353;29;19927;-55
2023/10/16 03:11:06;;;;;;;;;;;17.40;1.00;;;;;;4902546;29;20464;-52
2023/10/16 03:13:36;;;;;;;;;;;17.40;1.00;;;;;;4901994;29;19942;-57
2023/10/16 03:16:16;;;;;;;;;;;17.40;1.00;;;;;;4902313;29;20291;-56
2023/10/16 03:18:44;;;;;;;;;;;17.40;1.00;;;;;;4902393;29;20357;-57
2023/10/16 03:23:43;;;;;;;;;;;17.40;1.00;;;;;;4918593;29;19954;-56
2023/10/16 03:26:22;;;;;;;;;;;17.40;1.00;;;;;;4919060;29;19927;-55
2023/10/16 03:28:50;;;;;;;;;;;17.40;1.00;;;;;;4901949;29;19934;-57
2023/10/16 03:31:17;;;;;;;;;;;17.40;1.00;;;;;;4901878;29;19974;-56
2023/10/16 03:33:43;;;;;;;;;;;17.40;1.00;;;;;;4936872;29;19935;-56
2023/10/16 03:36:11;;;;;;;;;;;17.40;1.00;;;;;;4920675;29;19934;-55
2023/10/16 03:38:40;;;;;;;;;;;17.40;1.00;;;;;;4937590;29;19931;-56
2023/10/16 03:41:28;;;;;;;;;;;17.40;1.00;;;;;;4962452;23;19927;-58
2023/10/16 03:44:14;;;;;;;;;;;17.40;1.00;;;;;;4937742;29;19933;-56
2023/10/16 03:46:41;;;;;;;;;;;17.30;1.00;;;;;;4937655;29;20357;-55
2023/10/16 03:49:08;;;;;;;;;;;17.30;1.00;;;;;;4937553;29;20066;-56
2023/10/16 03:51:35;;;;;;;;;;;17.30;1.00;;;;;;4937192;29;19947;-56
2023/10/16 03:54:02;;;;;;;;;;;17.30;1.00;;;;;;4937586;29;19959;-56
2023/10/16 03:56:32;;;;;;;;;;;17.30;1.00;;;;;;4937585;29;19930;-53
2023/10/16 03:58:59;;;;;;;;;;;17.30;1.00;;;;;;4937372;29;20423;-53
2023/10/16 04:01:29;;;;;;;;;;;17.30;1.00;;;;;;4937405;29;19927;-56
2023/10/16 04:03:56;;;;;;;;;;;17.30;1.00;;;;;;4937413;29;20389;-58
2023/10/16 04:06:24;;;;;;;;;;;17.30;1.00;;;;;;4937225;29;19927;-57
2023/10/16 04:08:53;;;;;;;;;;;17.30;1.00;;;;;;4912319;29;19927;-56
2023/10/16 04:11:20;;;;;;;;;;;17.30;1.00;;;;;;5445181;23;19935;-58
2023/10/16 04:13:47;;;;;;;;;;;17.30;1.00;;;;;;4966376;28;19934;-58
2023/10/16 04:21:54;;;;;;;;;;;17.20;1.00;;;;;;4945086;29;19933;-56
2023/10/16 04:30:32;;;;;;;;;;;17.20;1.00;;;;;;4936711;29;19927;-58
2023/10/16 04:33:02;;;;;;;;;;;17.20;1.00;;;;;;4936477;29;19927;-58
2023/10/16 04:43:48;;;;;;;;;;;17.20;1.00;;;;;;5258871;23;19969;-56
2023/10/16 04:46:23;;;;;;;;;;;17.20;1.00;;;;;;4910186;29;19983;-57
2023/10/16 04:48:54;;;;;;;;;;;17.20;1.00;;;;;;4926224;29;19935;-56
2023/10/16 04:51:36;;;;;;;;;;;17.20;1.00;;;;;;4903524;29;19927;-55
2023/10/16 04:54:16;;;;;;;;;;;17.20;1.00;;;;;;4906088;29;19933;-56
2023/10/16 04:57:18;;;;;;;;;;;17.20;1.00;;;;;;4917485;29;20391;-52
2023/10/16 05:00:12;;;;;;;;;;;17.20;1.00;;;;;;4917058;29;19979;-57
2023/10/16 05:02:51;;;;;;;;;;;17.20;1.00;;;;;;4917233;29;20030;-55
2023/10/16 05:05:56;;;;;;;;;;;17.20;1.00;;;;;;4917244;29;20421;-55
2023/10/16 05:08:39;;;;;;;;;;;17.10;1.00;;;;;;4917170;29;19958;-56
2023/10/16 06:14:13;;;;;;;;;;;17.00;1.00;;;;;;4878729;29;20022;-55
2023/10/16 06:16:45;;;;;;;;;;;17.00;1.00;;;;;;4878500;29;20018;-54
2023/10/16 06:19:15;;;;;;;;;;;17.00;1.00;;;;;;4878891;29;19943;-56
2023/10/16 06:21:46;;;;;;;;;;;17.00;1.00;;;;;;4878501;29;19934;-55
2023/10/16 06:24:32;;;;;;;;;;;17.00;1.00;;;;;;4878514;29;20346;-55
2023/10/16 06:27:00;;;;;;;;;;;17.00;1.00;;;;;;4878481;29;19935;-56
2023/10/16 06:29:35;;;;;;;;;;;17.00;1.00;;;;;;4878479;29;19935;-54
2023/10/16 06:32:18;;;;;;;;;;;17.00;1.00;;;;;;4878230;29;19928;-56
2023/10/16 06:34:50;;;;;;;;;;;17.00;1.00;;;;;;4878382;29;19932;-56
2023/10/16 06:37:17;;;;;;;;;;;17.00;1.00;;;;;;4878622;29;20014;-57
2023/10/16 06:39:44;;;;;;;;;;;17.00;1.00;;;;;;4878224;29;19932;-56
2023/10/16 06:42:20;;;;;;;;;;;17.00;1.00;;;;;;4879572;29;19935;-54
2023/10/16 06:44:50;;;;;;;;;;;16.90;1.00;;;;;;4882217;29;20339;-55
2023/10/16 06:47:23;;;;;;;;;;;17.00;1.00;;;;;;4882055;29;19928;-57
2023/10/16 06:49:51;;;;;;;;;;;17.00;1.00;;;;;;4959936;23;19916;-52
2023/10/16 06:52:18;;;;;;;;;;;17.00;1.00;;;;;;4956181;29;19973;-56
2023/10/16 06:54:44;;;;;;;;;;;17.00;1.00;;;;;;4957569;29;19926;-55
2023/10/16 06:57:12;;;;;;;;;;;17.00;1.00;;;;;;4957788;29;19926;-57
2023/10/16 06:59:42;;;;;;;;;;;16.90;1.00;;;;;;4957382;29;19932;-57
2023/10/16 07:02:15;;;;;;;;;;;17.00;1.00;;;;;;4957277;29;20017;-56
2023/10/16 07:04:44;;;;;;;;;;;16.90;1.00;;;;;;4957612;29;19934;-55
2023/10/16 07:07:15;;;;;;;;;;;16.90;1.00;;;;;;4957489;29;19962;-55
2023/10/16 07:09:48;;;;;;;;;;;16.90;1.00;;;;;;4957389;29;20365;-54
2023/10/16 07:12:18;;;;;;;;;;;16.90;1.00;;;;;;4957670;29;19927;-53
2023/10/16 07:14:55;;;;;;;;;;;16.90;1.00;;;;;;4957186;29;19934;-53
2023/10/16 07:17:26;;;;;;;;;;;16.90;1.00;;;;;;4957304;29;19949;-57
2023/10/16 07:19:59;;;;;;;;;;;16.90;1.00;;;;;;4957054;29;19926;-56
2023/10/16 07:22:52;;;;;;;;;;;16.90;1.00;;;;;;5267073;23;20020;-55
2023/10/16 07:25:29;;;;;;;;;;;16.90;1.00;;;;;;4956856;28;19937;-53
2023/10/16 07:27:58;;;;;;;;;;;16.90;1.00;;;;;;4957147;28;20337;-58
2023/10/16 07:30:27;;;;;;;;;;;16.90;1.00;;;;;;4945654;28;20021;-56
2023/10/16 07:32:55;;;;;;;;;;;16.90;1.00;;;;;;4945463;29;19926;-55
2023/10/16 07:35:22;;;;;;;;;;;16.90;1.00;;;;;;4938076;29;20017;-55
2023/10/16 07:37:48;;;;;;;;;;;16.90;1.00;;;;;;4920631;29;19927;-58
2023/10/16 07:40:16;;;;;;;;;;;16.90;1.00;;;;;;4937717;29;20269;-57
2023/10/16 07:42:46;;;;;;;;;;;16.90;1.00;;;;;;4937589;29;20371;-53
2023/10/16 07:45:13;;;;;;;;;;;16.90;1.00;;;;;;4949262;29;19958;-56
2023/10/16 07:47:40;;;;;;;;;;;16.90;1.00;;;;;;4956739;29;19985;-57
2023/10/16 07:50:11;;;;;;;;;;;16.90;1.00;;;;;;4956735;29;20349;-56
2023/10/16 07:52:41;;;;;;;;;;;16.90;1.00;;;;;;4956002;28;19974;-53
2023/10/16 07:55:17;;;;;;;;;;;16.90;1.00;;;;;;5152310;23;19945;-56
2023/10/16 07:57:46;;;;;;;;;;;16.90;1.00;;;;;;4937627;29;19962;-58
2023/10/16 08:00:14;;;;;;;;;;;16.90;1.00;;;;;;4947306;29;19926;-56
2023/10/16 08:02:47;;;;;;;;;;;16.90;1.00;;;;;;4956286;29;19927;-58
2023/10/16 08:05:15;;;;;;;;;;;16.90;1.00;;;;;;4956401;29;20403;-57
2023/10/16 08:07:49;;;;;;;;;;;16.90;1.00;;;;;;4956310;29;19926;-58
2023/10/16 08:10:41;;;;;;;;;;;16.90;1.00;;;;;;4956363;29;19988;-56
2023/10/16 08:13:14;;;;;;;;;;;16.90;1.00;;;;;;4956009;29;20400;-57
2023/10/16 08:15:49;;;;;;;;;;;16.90;1.00;;;;;;4956435;29;19933;-58
2023/10/16 08:18:18;;;;;;;;;;;16.90;1.00;;;;;;4956155;29;20285;-58
2023/10/16 08:21:00;;;;;;;;;;;16.80;1.00;;;;;;4955889;29;20412;-57
2023/10/16 08:23:34;;;;;;;;;;;16.90;1.00;;;;;;4955991;29;19933;-55
2023/10/16 08:29:12;;;;;;;;;;;16.90;1.00;;;;;;4820838;29;19929;-55
2023/10/16 08:31:43;;;;;;;;;;;16.90;1.00;;;;;;4902079;29;19971;-56
2023/10/16 08:34:11;;;;;;;;;;;16.90;1.00;;;;;;4917598;29;19927;-56
2023/10/16 08:36:37;;;;;;;;;;;16.90;1.00;;;;;;4917804;29;19927;-57
2023/10/16 08:39:15;;;;;;;;;;;16.90;1.00;;;;;;4917718;29;19927;-55
2023/10/16 08:41:42;;;;;;;;;;;16.90;1.00;;;;;;4917564;29;19942;-56
2023/10/16 08:44:15;;;;;;;;;;;16.90;1.00;;;;;;4917423;29;20385;-57
2023/10/16 08:49:34;;;;;;;;;;;16.90;1.00;;;;;;4888388;29;19927;-54
2023/10/16 08:52:23;;;;;;;;;;;16.90;1.00;;;;;;4917582;29;19927;-56
2023/10/16 08:57:19;;;;;;;;;;;16.90;1.00;;;;;;5009079;23;19931;-54
2023/10/16 08:59:49;;;;;;;;;;;16.90;1.00;;;;;;4955402;29;20305;-55
2023/10/16 09:02:19;;;;;;;;;;;16.90;1.00;;;;;;4954959;29;19926;-54
2023/10/16 09:04:52;;;;;;;;;;;16.90;1.00;;;;;;4955009;28;20390;-56
2023/10/16 09:07:19;;;;;;;;;;;16.90;1.00;;;;;;4955324;29;20344;-57
2023/10/16 09:09:49;;;;;;;;;;;16.90;1.00;;;;;;4955163;29;20518;-54
2023/10/16 09:12:25;;;;;;;;;;;16.90;1.00;;;;;;4954927;29;19958;-56
2023/10/16 09:14:53;;;;;;;;;;;16.90;1.00;;;;;;4954975;29;19927;-53
2023/10/16 09:17:24;;;;;;;;;;;16.90;1.00;;;;;;4947400;29;19969;-56
2023/10/16 09:19:50;;;;;;;;;;;16.90;1.00;;;;;;4955365;29;19949;-56
2023/10/16 09:22:31;;;;;;;;;;;16.90;1.00;;;;;;4954874;29;19931;-56
2023/10/16 09:24:59;;;;;;;;;;;16.90;1.00;;;;;;4954749;29;20309;-55
2023/10/16 09:27:30;;;;;;;;;;;16.90;1.00;;;;;;4954300;29;19933;-55
2023/10/16 09:29:58;;;;;;;;;;;17.00;1.00;;;;;;4955412;29;19933;-56
2023/10/16 09:32:26;;;;;;;;;;;17.00;1.00;;;;;;4954881;29;19989;-57
2023/10/16 09:34:53;;;;;;;;;;;17.00;1.00;;;;;;4955097;29;19933;-56
2023/10/16 09:37:29;;;;;;;;;;;17.00;1.00;;;;;;4955018;29;20017;-57
2023/10/16 09:40:00;;;;;;;;;;;17.00;1.00;;;;;;4954730;29;19949;-57
2023/10/16 09:42:28;;;;;;;;;;;17.00;1.00;;;;;;4954823;29;19962;-56
2023/10/16 09:45:09;;;;;;;;;;;17.00;1.00;;;;;;4954972;29;19926;-54
2023/10/16 09:47:48;;;;;;;;;;;17.00;1.00;;;;;;4954416;29;19934;-55
2023/10/16 09:50:19;;;;;;;;;;;17.10;1.00;;;;;;4954459;29;20037;-56
2023/10/16 09:52:46;;;;;;;;;;;17.10;1.00;;;;;;4954597;29;19949;-53
2023/10/16 09:55:13;;;;;;;;;;;17.10;1.00;;;;;;4954380;29;19930;-53
2023/10/16 10:00:32;;;;;;;;;;;17.10;1.00;;;;;;5085991;23;19955;-57
2023/10/16 10:02:59;;;;;;;;;;;17.10;1.00;;;;;;4915888;29;19959;-56
2023/10/16 10:05:41;;;;;;;;;;;17.10;1.00;;;;;;4916358;29;20270;-51
2023/10/16 10:08:23;;;;;;;;;;;17.10;1.00;;;;;;4915891;29;20397;-56
2023/10/16 10:11:05;;;;;;;;;;;17.10;1.00;;;;;;4916055;29;20468;-51
2023/10/16 10:14:09;;;;;;;;;;;17.10;1.00;;;;;;4915885;29;19975;-53
2023/10/16 10:16:45;;;;;;;;;;;17.20;1.00;;;;;;4934318;29;19927;-54
2023/10/16 10:19:24;;;;;;;;;;;17.20;1.00;;;;;;4934953;29;20401;-55
2023/10/16 10:21:54;;;;;;;;;;;17.20;1.00;;;;;;4934817;29;20400;-55
2023/10/16 10:24:21;;;;;;;;;;;17.20;1.00;;;;;;4934898;29;19942;-57
2023/10/16 10:26:48;;;;;;;;;;;17.20;1.00;;;;;;4934696;29;20397;-55
2023/10/16 10:29:16;;;;;;;;;;;17.20;1.00;;;;;;4934696;29;20441;-54
2023/10/16 10:31:47;;;;;;;;;;;17.20;1.00;;;;;;5284709;23;19927;-55
2023/10/16 10:34:22;;;;;;;;;;;17.20;1.00;;;;;;4934969;29;19927;-57
2023/10/16 10:36:50;;;;;;;;;;;17.30;1.00;;;;;;4934956;29;19997;-56
2023/10/16 10:39:20;;;;;;;;;;;17.30;1.00;;;;;;4934788;29;20316;-55
2023/10/16 10:41:58;;;;;;;;;;;17.30;1.00;;;;;;4934472;29;19934;-57
2023/10/16 10:44:31;;;;;;;;;;;17.30;1.00;;;;;;4934763;29;19927;-58
2023/10/16 10:47:02;;;;;;;;;;;17.30;1.00;;;;;;4934877;29;20412;-57
2023/10/16 10:49:33;;;;;;;;;;;17.30;1.00;;;;;;4919324;29;20017;-55
2023/10/16 10:52:01;;;;;;;;;;;17.30;1.00;;;;;;4934556;29;20288;-56
2023/10/16 10:54:28;;;;;;;;;;;17.30;1.00;;;;;;4934949;29;20424;-57
2023/10/16 10:56:59;;;;;;;;;;;17.30;1.00;;;;;;4934626;29;19927;-58
2023/10/16 10:59:39;;;;;;;;;;;17.30;1.00;;;;;;4934485;29;20338;-57
2023/10/16 11:02:22;;;;;;;;;;;17.30;1.00;;;;;;4934640;29;19934;-57
2023/10/16 11:04:53;;;;;;;;;;;17.30;1.00;;;;;;5179953;23;20314;-58
2023/10/16 11:07:26;;;;;;;;;;;17.40;1.00;;;;;;4915625;29;20046;-56
2023/10/16 11:09:53;;;;;;;;;;;17.40;1.00;;;;;;4915564;29;19938;-58
2023/10/16 11:12:26;;;;;;;;;;;17.40;1.00;;;;;;4915812;29;19931;-55
2023/10/16 11:14:54;;;;;;;;;;;17.40;1.00;;;;;;4915621;29;19938;-56
2023/10/16 11:17:30;;;;;;;;;;;17.40;1.00;;;;;;4915667;29;19929;-57
2023/10/16 11:19:57;;;;;;;;;;;17.40;1.00;;;;;;4915292;29;19987;-56
2023/10/16 11:22:27;;;;;;;;;;;17.40;1.00;;;;;;4915343;29;20408;-53
2023/10/16 11:24:54;;;;;;;;;;;17.40;1.00;;;;;;4915338;29;20297;-57
2023/10/16 11:27:21;;;;;;;;;;;17.40;1.00;;;;;;4915709;29;19982;-55
2023/10/16 11:29:51;;;;;;;;;;;17.40;1.00;;;;;;4901755;29;20014;-55
2023/10/16 11:32:25;;;;;;;;;;;17.40;1.00;;;;;;4918402;29;20464;-55
2023/10/16 11:35:12;;;;;;;;;;;17.50;1.00;;;;;;4919029;29;20326;-57
2023/10/16 11:37:39;;;;;;;;;;;17.50;1.00;;;;;;5423043;23;19930;-55
2023/10/16 11:40:18;;;;;;;;;;;17.50;1.00;;;;;;4956695;28;19926;-55
2023/10/16 11:42:45;;;;;;;;;;;17.50;1.00;;;;;;4956500;29;20431;-56
2023/10/16 11:45:18;;;;;;;;;;;17.50;1.00;;;;;;4956721;29;19927;-56
2023/10/16 11:48:03;;;;;;;;;;;17.50;1.00;;;;;;4956633;29;19958;-56
2023/10/16 11:50:38;;;;;;;;;;;17.50;1.00;;;;;;4956563;28;19930;-56
2023/10/16 11:53:09;;;;;;;;;;;17.50;1.00;;;;;;4956546;29;20020;-55
2023/10/16 11:55:39;;;;;;;;;;;17.50;1.00;;;;;;4956543;29;19926;-55
2023/10/16 11:58:11;;;;;;;;;;;17.50;1.00;;;;;;4956724;29;20389;-55
2023/10/16 12:00:47;;;;;;;;;;;17.50;1.00;;;;;;4956529;28;19927;-56
2023/10/16 12:03:15;;;;;;;;;;;17.50;1.00;;;;;;4956131;29;20285;-57
2023/10/16 12:05:42;;;;;;;;;;;17.50;1.00;;;;;;4956464;29;20396;-57
2023/10/16 12:08:09;;;;;;;;;;;17.50;1.00;;;;;;4956243;29;19927;-55
2023/10/16 12:10:36;;;;;;;;;;;17.50;1.00;;;;;;4956655;28;19932;-57
2023/10/16 12:13:03;;;;;;;;;;;17.50;1.00;;;;;;4956059;29;19961;-55
2023/10/16 12:15:31;;;;;;;;;;;17.50;1.00;;;;;;4956411;29;20017;-52
2023/10/16 12:18:00;;;;;;;;;;;17.50;1.00;;;;;;4956840;29;20025;-56
2023/10/16 12:20:27;;;;;;;;;;;17.50;1.00;;;;;;4956034;28;20021;-55
2023/10/16 12:22:57;;;;;;;;;;;17.50;1.00;;;;;;4955214;29;20424;-54
2023/10/16 12:25:24;;;;;;;;;;;17.50;1.00;;;;;;4955989;29;19933;-57
2023/10/16 12:27:51;;;;;;;;;;;17.50;1.00;;;;;;4956084;29;19930;-57
2023/10/16 12:30:19;;;;;;;;;;;17.50;1.00;;;;;;4955754;28;19926;-56
2023/10/16 12:32:46;;;;;;;;;;;17.50;1.00;;;;;;4955641;29;20004;-57
2023/10/16 12:35:16;;;;;;;;;;;17.50;1.00;;;;;;4955950;29;19926;-53
2023/10/16 12:37:44;;;;;;;;;;;17.50;1.00;;;;;;4955965;29;20009;-55
2023/10/16 12:40:27;;;;;;;;;;;17.50;1.00;;;;;;4955099;28;19977;-56
2023/10/16 12:42:55;;;;;;;;;;;17.50;1.00;;;;;;4955500;29;19990;-57
2023/10/16 12:45:22;;;;;;;;;;;17.50;1.00;;;;;;4955561;29;19937;-55
2023/10/16 12:47:51;;;;;;;;;;;17.50;1.00;;;;;;4955653;29;19948;-52
2023/10/16 12:50:25;;;;;;;;;;;17.50;1.00;;;;;;4955557;28;19927;-57
2023/10/16 12:52:54;;;;;;;;;;;17.50;1.00;;;;;;4955475;29;19957;-54
2023/10/16 12:55:22;;;;;;;;;;;17.50;1.00;;;;;;4955639;29;19933;-55
2023/10/16 12:57:50;;;;;;;;;;;17.50;1.00;;;;;;4951057;29;20321;-55
2023/10/16 13:00:18;;;;;;;;;;;17.60;1.00;;;;;;4936075;29;19931;-52
2023/10/16 13:02:45;;;;;;;;;;;17.60;1.00;;;;;;4936112;29;20358;-56
2023/10/16 13:05:13;;;;;;;;;;;17.60;1.00;;;;;;4936536;29;20384;-57
2023/10/16 13:07:41;;;;;;;;;;;17.60;1.00;;;;;;4936093;29;19934;-55
2023/10/16 13:10:14;;;;;;;;;;;17.60;1.00;;;;;;5035065;23;19992;-56
2023/10/16 13:12:44;;;;;;;;;;;17.50;1.00;;;;;;4936123;29;20010;-56
2023/10/16 13:15:15;;;;;;;;;;;17.60;1.00;;;;;;4936158;29;19982;-53
2023/10/16 13:17:44;;;;;;;;;;;17.60;1.00;;;;;;4936223;29;19934;-57
2023/10/16 13:20:17;;;;;;;;;;;17.60;1.00;;;;;;4936007;29;20215;-55
2023/10/16 13:22:49;;;;;;;;;;;17.60;1.00;;;;;;4935758;29;20290;-57
2023/10/16 13:25:18;;;;;;;;;;;17.60;1.00;;;;;;4935861;29;19982;-54
2023/10/16 13:27:45;;;;;;;;;;;17.60;1.00;;;;;;4935919;29;20033;-57
2023/10/16 13:30:12;;;;;;;;;;;17.60;1.00;;;;;;4935622;29;19935;-53
2023/10/16 13:32:41;;;;;;;;;;;17.60;1.00;;;;;;4935450;29;19982;-55
2023/10/16 13:35:14;;;;;;;;;;;17.60;1.00;;;;;;4935707;29;20033;-54
2023/10/16 13:37:44;;;;;;;;;;;17.60;1.00;;;;;;4935663;29;19926;-55
2023/10/16 13:43:16;;;;;;;;;;;17.60;1.00;;;;;;5273002;23;19962;-56
2023/10/16 13:45:43;;;;;;;;;;;17.60;1.00;;;;;;4935522;29;19958;-55
2023/10/16 13:48:10;;;;;;;;;;;17.60;1.00;;;;;;4915312;29;20021;-57
2023/10/16 13:50:37;;;;;;;;;;;17.60;1.00;;;;;;4911421;29;19927;-57
2023/10/16 13:53:04;;;;;;;;;;;17.60;1.00;;;;;;4907928;29;19939;-58
2023/10/16 13:55:31;;;;;;;;;;;17.60;1.00;;;;;;4918321;29;20286;-57
2023/10/16 13:57:58;;;;;;;;;;;17.60;1.00;;;;;;4910962;29;20009;-57
2023/10/16 14:03:04;;;;;;;;;;;17.60;1.00;;;;;;4935075;29;20049;-58
2023/10/16 14:05:35;;;;;;;;;;;17.60;1.00;;;;;;4935085;29;19927;-58
2023/10/16 14:08:03;;;;;;;;;;;17.60;1.00;;;;;;4935443;29;20014;-58
2023/10/16 14:10:30;;;;;;;;;;;17.60;1.00;;;;;;4934858;29;19927;-58
2023/10/16 14:15:57;;;;;;;;;;;17.60;1.00;;;;;;4948680;23;20294;-56
2023/10/16 14:18:29;;;;;;;;;;;17.60;1.00;;;;;;4935046;29;20381;-57
2023/10/16 14:20:56;;;;;;;;;;;17.60;1.00;;;;;;4934912;29;19990;-57
2023/10/16 14:23:29;;;;;;;;;;;17.60;1.00;;;;;;4934546;29;19926;-56
2023/10/16 14:25:59;;;;;;;;;;;17.60;1.00;;;;;;4935051;29;19982;-57
2023/10/16 14:28:40;;;;;;;;;;;17.60;1.00;;;;;;4921466;29;19927;-53
2023/10/16 14:31:11;;;;;;;;;;;17.60;1.00;;;;;;4912101;29;19926;-57
2023/10/16 14:33:39;;;;;;;;;;;17.60;1.00;;;;;;4930349;29;20388;-57
2023/10/16 14:36:07;;;;;;;;;;;17.60;1.00;;;;;;4930798;29;19927;-58
2023/10/16 14:38:33;;;;;;;;;;;17.60;1.00;;;;;;4919429;29;19934;-57
2023/10/16 14:41:08;;;;;;;;;;;17.60;1.00;;;;;;4922205;29;20058;-57
2023/10/16 14:43:46;;;;;;;;;;;17.60;1.00;;;;;;4903775;28;19928;-58
2023/10/16 14:46:12;;;;;;;;;;;17.50;1.00;;;;;;4913267;29;19927;-56
2023/10/16 14:48:43;;;;;;;;;;;17.50;1.00;;;;;;4912529;29;19928;-57
2023/10/16 14:51:14;;;;;;;;;;;17.50;1.00;;;;;;4909544;29;19931;-55
2023/10/16 14:53:43;;;;;;;;;;;17.50;1.00;;;;;;4915690;29;20029;-56
2023/10/16 14:56:11;;;;;;;;;;;17.50;1.00;;;;;;4916097;29;20297;-55
2023/10/16 14:58:40;;;;;;;;;;;17.40;1.00;;;;;;4916093;29;19931;-57
2023/10/16 15:01:16;;;;;;;;;;;17.40;1.00;;;;;;4915008;29;19934;-56
2023/10/16 15:03:45;;;;;;;;;;;17.40;1.00;;;;;;4915333;29;20394;-56
2023/10/16 15:06:13;;;;;;;;;;;17.40;1.00;;;;;;4915126;29;19927;-57
2023/10/16 15:08:41;;;;;;;;;;;17.30;1.00;;;;;;4908804;29;19983;-55
2023/10/16 15:11:10;;;;;;;;;;;17.30;1.00;;;;;;4913940;29;19927;-57
2023/10/16 15:13:38;;;;;;;;;;;17.30;1.00;;;;;;4916832;29;20385;-55
2023/10/16 15:16:06;;;;;;;;;;;17.20;1.00;;;;;;5025371;23;19927;-57
2023/10/16 15:18:34;;;;;;;;;;;17.20;1.00;;;;;;4937151;29;20342;-57
2023/10/16 15:21:01;;;;;;;;;;;17.20;1.00;;;;;;4927670;29;19934;-57
2023/10/16 15:23:29;;;;;;;;;;;17.10;1.00;;;;;;4927121;29;20446;-56
2023/10/16 15:25:58;;;;;;;;;;;17.10;1.00;;;;;;4927026;29;20265;-57
2023/10/16 15:28:28;;;;;;;;;;;17.10;1.00;;;;;;4920323;29;19927;-56
2023/10/16 15:31:16;;;;;;;;;;;17.10;1.00;;;;;;4927324;29;19933;-56
2023/10/16 15:34:08;;;;;;;;;;;17.10;1.00;;;;;;4923564;29;19927;-57
2023/10/16 15:36:36;;;;;;;;;;;17.10;1.00;;;;;;4937826;29;19926;-55
2023/10/16 15:39:02;;;;;;;;;;;17.10;1.00;;;;;;4937717;29;19927;-56
2023/10/16 15:41:30;;;;;;;;;;;17.10;1.00;;;;;;4932828;29;19930;-56
2023/10/16 15:43:58;;;;;;;;;;;17.10;1.00;;;;;;4923835;29;19937;-54
2023/10/16 15:46:28;;;;;;;;;;;17.10;1.00;;;;;;4950227;23;20350;-55
2023/10/16 15:48:55;;;;;;;;;;;17.10;1.00;;;;;;4937329;29;19927;-57
2023/10/16 15:51:24;;;;;;;;;;;17.10;1.00;;;;;;4908436;29;20010;-55
2023/10/16 15:53:51;;;;;;;;;;;17.10;1.00;;;;;;4907209;29;19941;-54
2023/10/16 15:56:24;;;;;;;;;;;17.10;1.00;;;;;;4899701;29;19927;-54
2023/10/16 15:58:51;;;;;;;;;;;17.10;1.00;;;;;;4902348;29;19971;-54
2023/10/16 16:01:19;;;;;;;;;;;17.10;1.00;;;;;;4916861;29;20401;-54
2023/10/16 16:03:46;;;;;;;;;;;17.10;1.00;;;;;;4908574;29;19927;-55
2023/10/16 16:06:13;;;;;;;;;;;17.10;1.00;;;;;;4902516;29;20381;-56
2023/10/16 16:08:44;;;;;;;;;;;17.10;1.00;;;;;;4909250;29;20394;-56
2023/10/16 16:11:13;;;;;;;;;;;17.10;1.00;;;;;;4907429;29;19974;-55
2023/10/16 16:13:41;;;;;;;;;;;17.10;1.00;;;;;;4905802;29;19927;-55
2023/10/16 16:18:52;;;;;;;;;;;17.10;1.00;;;;;;4910042;29;19991;-55
2023/10/16 16:21:18;;;;;;;;;;;17.10;1.00;;;;;;4894775;29;19984;-53
2023/10/16 16:23:45;;;;;;;;;;;17.10;1.00;;;;;;4888767;29;20354;-52
2023/10/16 16:26:12;;;;;;;;;;;17.10;1.00;;;;;;4890602;29;20384;-52
2023/10/16 16:28:39;;;;;;;;;;;17.10;1.00;;;;;;4888455;29;20397;-56
2023/10/16 16:31:07;;;;;;;;;;;17.10;1.00;;;;;;4887709;29;20043;-56
2023/10/16 16:33:34;;;;;;;;;;;17.10;1.00;;;;;;4895398;29;20336;-51
2023/10/16 16:36:01;;;;;;;;;;;17.20;1.00;;;;;;4881732;29;19935;-54
2023/10/16 16:38:28;;;;;;;;;;;17.20;1.00;;;;;;4888723;29;19927;-55
2023/10/16 16:40:54;;;;;;;;;;;17.20;1.00;;;;;;4884369;29;19931;-56
2023/10/16 16:43:21;;;;;;;;;;;17.20;1.00;;;;;;4891239;29;19998;-55
2023/10/16 16:45:48;;;;;;;;;;;17.20;1.00;;;;;;4888868;29;20335;-54
2023/10/16 16:51:12;;;;;;;;;;;17.20;1.00;;;;;;4909063;29;19980;-53
2023/10/16 16:53:39;;;;;;;;;;;17.20;1.00;;;;;;4913550;29;19927;-55
2023/10/16 16:56:06;;;;;;;;;;;17.20;1.00;;;;;;4904126;29;20421;-56